Terminal Aerodrome Forecast
Issued by NWS

Home | Current Version | Previous Version | Text Only | Print | Product List | Glossary On
Versions: 1 2 3 4 5 6 7 8 9 10 11 12 13 14 15 16 17 18 19 20 21 22 23 24 25 26 27 28
000
FTPA31 PHFO 211100
TAFKOA
TAF
PHKO 211128Z 2112/2212 11008KT P6SM FEW030 FEW060
     FM211900 24010KT P6SM SCT060
     FM220500 19005KT P6SM FEW030 SCT060
     FM220800 11005KT P6SM FEW030=

USA.gov is the U.S. government's official web portal to all federal, state and local government web resources and services.